Time;durP1;ratioP1;P1;durP2;ratioP2;P2;SDS_P1;SDS_P2;PMS_P1;PMS_P2;Temp;Humidity;BMP_temperature;BMP_pressure;BME280_temperature;BME280_humidity;BME280_pressure;Samples;Min_cycle;Max_cycle;Signal;HPM_P1;HPM_P2
2023/08/29 00:00:57;;;;;;;8.67;4.27;;;;;;;19.51;75.02;99315.69;4184874;28;20237;-68
2023/08/29 00:03:27;;;;;;;11.63;5.00;;;;;;;19.31;76.67;99306.69;4188187;28;20852;-65
2023/08/29 00:06:01;;;;;;;8.77;4.93;;;;;;;19.03;78.51;99299.06;4189529;28;20249;-63
2023/08/29 00:08:28;;;;;;;8.90;4.97;;;;;;;18.82;79.06;99275.66;4190767;28;20233;-65
2023/08/29 00:10:57;;;;;;;10.13;5.23;;;;;;;18.77;80.44;99283.75;4183675;28;20489;-64
2023/08/29 00:13:24;;;;;;;9.13;4.80;;;;;;;18.63;81.86;99305.81;4189668;28;21766;-63
2023/08/29 00:15:52;;;;;;;8.13;5.27;;;;;;;18.47;83.79;99300.94;4182950;28;20240;-64
2023/08/29 00:18:21;;;;;;;15.37;5.13;;;;;;;18.35;84.25;99293.47;4189741;28;20239;-66
2023/08/29 00:20:48;;;;;;;11.03;5.60;;;;;;;18.27;84.49;99285.56;4194639;28;20231;-64
2023/08/29 00:23:15;;;;;;;8.77;5.40;;;;;;;18.20;85.56;99284.78;4201515;28;23600;-64
2023/08/29 00:25:42;;;;;;;10.60;5.83;;;;;;;18.18;86.58;99274.06;4194641;28;20273;-64
2023/08/29 00:28:10;;;;;;;11.47;5.70;;;;;;;18.13;86.71;99273.06;4181622;28;20334;-64
2023/08/29 00:30:37;;;;;;;11.57;5.60;;;;;;;18.05;88.27;99264.06;4189784;28;20335;-64
2023/08/29 00:33:09;;;;;;;9.90;5.83;;;;;;;17.93;89.30;99256.78;4195180;28;20242;-67
2023/08/29 00:35:36;;;;;;;10.20;5.70;;;;;;;17.82;89.88;99250.13;4178985;28;20233;-64
2023/08/29 00:38:03;;;;;;;14.73;6.17;;;;;;;17.77;89.87;99256.28;4187062;28;20566;-65
2023/08/29 00:40:31;;;;;;;10.83;5.47;;;;;;;17.80;90.31;99249.53;4198149;28;20241;-64
2023/08/29 00:43:01;;;;;;;10.40;6.40;;;;;;;17.81;90.48;99243.00;4186526;28;20242;-66
2023/08/29 00:45:31;;;;;;;10.60;6.00;;;;;;;17.79;90.89;99243.22;4188259;28;20455;-65
2023/08/29 00:47:59;;;;;;;10.07;6.40;;;;;;;17.85;90.88;99249.72;4198026;28;20378;-64
2023/08/29 00:50:26;;;;;;;10.30;6.50;;;;;;;17.94;90.08;99247.50;4191273;28;20370;-66
2023/08/29 00:52:58;;;;;;;12.73;6.70;;;;;;;17.92;90.92;99244.16;4189897;28;20229;-66
2023/08/29 00:55:26;;;;;;;8.77;5.80;;;;;;;17.93;91.54;99234.88;4178327;28;26742;-63
2023/08/29 00:57:56;;;;;;;10.57;7.03;;;;;;;17.94;91.23;99242.03;4187133;28;20276;-65
2023/08/29 01:00:27;;;;;;;14.07;6.70;;;;;;;17.95;91.71;99230.88;4181070;28;20225;-66
2023/08/29 01:02:54;;;;;;;8.67;6.33;;;;;;;17.99;91.08;99217.56;4193772;28;21965;-64
2023/08/29 01:05:21;;;;;;;9.57;6.50;;;;;;;18.00;91.10;99205.56;4190377;28;20340;-63
2023/08/29 01:07:52;;;;;;;11.30;6.43;;;;;;;18.11;90.09;99210.31;4185802;28;20234;-67
2023/08/29 01:10:45;;;;;;;10.03;6.10;;;;;;;18.25;89.46;99200.00;4172065;28;20630;-63
2023/08/29 01:13:17;;;;;;;8.73;5.90;;;;;;;18.32;89.21;99189.81;4195067;28;20235;-65
2023/08/29 01:15:48;;;;;;;10.97;6.30;;;;;;;18.37;89.17;99195.47;4206544;28;25499;-65
2023/08/29 01:18:15;;;;;;;12.40;5.63;;;;;;;18.45;89.47;99199.78;4193624;28;20243;-64
2023/08/29 01:20:42;;;;;;;7.80;5.30;;;;;;;18.49;88.84;99192.78;4187481;28;20237;-67
2023/08/29 01:23:27;;;;;;;7.40;5.53;;;;;;;18.51;89.00;99189.81;4180853;28;20972;-64
2023/08/29 01:26:12;;;;;;;8.93;5.47;;;;;;;18.59;88.63;99194.13;4181951;28;20310;-64
2023/08/29 01:28:42;;;;;;;8.83;5.70;;;;;;;18.61;88.82;99190.13;4192741;28;20237;-65
2023/08/29 01:31:09;;;;;;;9.10;5.83;;;;;;;18.54;89.17;99175.66;4194287;28;20362;-66
2023/08/29 01:33:38;;;;;;;8.43;5.47;;;;;;;18.54;89.77;99181.16;4198137;28;20898;-65
2023/08/29 01:36:05;;;;;;;7.17;5.27;;;;;;;18.57;89.97;99172.44;4195526;28;21129;-64
2023/08/29 01:38:32;;;;;;;12.27;5.60;;;;;;;18.60;89.67;99169.25;4192607;28;20888;-65
2023/08/29 01:40:58;;;;;;;8.80;5.13;;;;;;;18.65;89.53;99166.63;4186911;28;20276;-64
2023/08/29 01:43:26;;;;;;;7.90;5.17;;;;;;;18.64;89.91;99151.25;4187186;28;20230;-64
2023/08/29 01:45:52;;;;;;;8.47;5.17;;;;;;;18.67;89.52;99139.84;4192661;28;20274;-65
2023/08/29 01:48:19;;;;;;;9.37;4.53;;;;;;;18.72;89.34;99146.53;4191000;28;20245;-63
2023/08/29 01:50:47;;;;;;;7.03;4.33;;;;;;;18.72;88.85;99128.19;4177559;28;21066;-65
2023/08/29 01:53:14;;;;;;;7.00;4.33;;;;;;;18.81;88.85;99128.69;4180846;28;20313;-62
2023/08/29 01:55:42;;;;;;;8.07;3.70;;;;;;;18.80;88.39;99127.84;4189464;28;20282;-63
2023/08/29 01:58:09;;;;;;;9.67;4.20;;;;;;;18.86;88.07;99120.56;4184951;28;20642;-64
2023/08/29 02:00:36;;;;;;;14.20;4.07;;;;;;;18.81;88.43;99114.97;4186395;28;20229;-64
2023/08/29 02:03:02;;;;;;;6.27;3.80;;;;;;;18.81;88.08;99102.09;4189832;28;20251;-63
2023/08/29 02:05:29;;;;;;;7.73;3.60;;;;;;;18.80;88.07;99094.97;4190941;28;20240;-63
2023/08/29 02:07:56;;;;;;;5.03;3.63;;;;;;;18.83;87.79;99079.94;4185351;28;20542;-63
2023/08/29 02:10:22;;;;;;;8.53;3.80;;;;;;;18.82;87.85;99076.34;4189757;28;20690;-63
2023/08/29 02:12:51;;;;;;;9.00;3.50;;;;;;;18.85;87.59;99067.66;4199298;28;20238;-63
2023/08/29 02:15:18;;;;;;;8.13;3.60;;;;;;;18.91;87.29;99065.03;4190050;28;20310;-64
2023/08/29 02:17:44;;;;;;;7.20;3.50;;;;;;;18.84;87.39;99062.41;4204663;28;21600;-65
2023/08/29 02:20:11;;;;;;;6.10;3.47;;;;;;;18.91;87.48;99054.91;4198223;28;20241;-63
2023/08/29 02:22:38;;;;;;;6.57;3.37;;;;;;;18.87;87.17;99036.44;4188620;28;20493;-63
2023/08/29 02:25:04;;;;;;;6.23;3.63;;;;;;;18.98;86.94;99046.59;4190011;28;21562;-65
2023/08/29 02:27:34;;;;;;;8.83;3.33;;;;;;;19.04;86.16;99037.41;4192323;28;20601;-63
2023/08/29 02:30:04;;;;;;;7.50;2.80;;;;;;;19.02;86.43;99034.09;4183619;28;20237;-63
2023/08/29 02:32:34;;;;;;;5.10;3.00;;;;;;;19.07;86.02;99033.38;4198047;28;20233;-64
2023/08/29 02:35:03;;;;;;;8.60;2.67;;;;;;;19.12;85.68;99020.59;4199796;28;26149;-64
2023/08/29 02:37:30;;;;;;;6.77;2.57;;;;;;;19.22;85.29;99020.00;4201057;28;21101;-65
2023/08/29 02:39:57;;;;;;;6.13;2.40;;;;;;;19.21;85.20;99025.75;4187876;28;20260;-63
2023/08/29 02:42:24;;;;;;;4.57;2.53;;;;;;;19.32;84.78;99008.44;4194239;28;22712;-65
2023/08/29 02:44:51;;;;;;;3.87;2.30;;;;;;;19.34;84.64;99002.72;4193587;28;20535;-63
2023/08/29 02:47:18;;;;;;;9.57;2.70;;;;;;;19.31;84.56;99004.84;4185697;28;26254;-64
2023/08/29 02:49:44;;;;;;;5.17;2.20;;;;;;;19.30;84.80;98996.88;4186089;28;20523;-67
2023/08/29 02:52:11;;;;;;;5.47;2.50;;;;;;;19.32;84.77;98994.72;4185625;28;20237;-64
2023/08/29 02:54:38;;;;;;;4.77;2.30;;;;;;;19.28;84.82;98994.38;4205669;28;20234;-62
2023/08/29 02:57:04;;;;;;;3.37;2.20;;;;;;;19.32;84.55;98973.59;4200052;28;20287;-66
2023/08/29 02:59:31;;;;;;;5.57;2.43;;;;;;;19.31;85.06;98971.94;4187035;28;20242;-64
2023/08/29 03:01:59;;;;;;;4.43;2.40;;;;;;;19.29;84.77;98960.38;4191590;28;21437;-65
2023/08/29 03:04:26;;;;;;;5.90;2.27;;;;;;;19.27;85.27;98961.66;4205328;28;20228;-64
2023/08/29 03:06:53;;;;;;;5.53;2.13;;;;;;;19.32;85.05;98962.63;4188737;28;20241;-65
2023/08/29 03:09:20;;;;;;;5.17;2.10;;;;;;;19.28;85.19;98953.22;4186229;28;24084;-65
2023/08/29 03:11:46;;;;;;;8.60;2.73;;;;;;;19.30;85.22;98940.06;4201462;28;20256;-65
2023/08/29 03:14:14;;;;;;;9.00;2.03;;;;;;;19.32;85.28;98931.63;4188123;28;20379;-65
2023/08/29 03:16:40;;;;;;;4.33;2.27;;;;;;;19.25;85.94;98925.44;4196697;28;25537;-63
2023/08/29 03:19:07;;;;;;;4.10;2.10;;;;;;;19.16;86.18;98912.09;4195573;28;23505;-64
2023/08/29 03:21:34;;;;;;;7.77;2.40;;;;;;;19.20;86.19;98917.94;4192300;28;20551;-64
2023/08/29 03:24:01;;;;;;;4.43;2.27;;;;;;;19.12;86.67;98930.09;4198286;28;21265;-64
2023/08/29 03:26:28;;;;;;;4.57;2.17;;;;;;;19.10;87.00;98953.34;4193750;28;22429;-67
2023/08/29 03:28:54;;;;;;;6.53;2.40;;;;;;;19.17;87.12;98989.72;4190820;28;20393;-66
2023/08/29 03:31:21;;;;;;;11.30;2.43;;;;;;;19.26;86.70;99076.09;4183315;28;20233;-64
2023/08/29 03:33:48;;;;;;;8.53;2.13;;;;;;;19.34;86.48;99145.38;4197115;28;20266;-64
2023/08/29 03:36:14;;;;;;;5.13;1.97;;;;;;;19.25;87.13;99173.16;4202871;28;20336;-64
2023/08/29 03:38:42;;;;;;;5.73;1.87;;;;;;;19.23;87.76;99164.34;4191025;28;20260;-64
2023/08/29 03:41:08;;;;;;;3.07;2.10;;;;;;;19.22;87.88;99159.91;4197662;28;20289;-63
2023/08/29 03:43:36;;;;;;;4.97;2.13;;;;;;;19.29;87.55;99163.41;4189955;28;20556;-65
2023/08/29 03:46:04;;;;;;;7.30;2.23;;;;;;;19.24;88.15;99135.84;4192315;28;21147;-64
2023/08/29 03:48:32;;;;;;;4.33;2.30;;;;;;;19.26;88.04;99133.69;4193134;28;20257;-65
2023/08/29 03:51:05;;;;;;;8.47;2.30;;;;;;;19.27;88.09;99135.38;4188846;28;20237;-63
2023/08/29 03:53:33;;;;;;;3.00;2.00;;;;;;;19.41;87.16;99129.66;4195046;28;20222;-64
2023/08/29 03:56:02;;;;;;;3.77;2.03;;;;;;;19.48;86.86;99109.25;4179503;28;24030;-65
2023/08/29 03:58:30;;;;;;;8.57;2.73;;;;;;;19.41;88.14;99114.00;4202176;28;20306;-64
2023/08/29 04:00:56;;;;;;;3.53;2.33;;;;;;;19.14;88.93;99098.00;4190646;28;20252;-64
2023/08/29 04:03:23;;;;;;;3.63;2.27;;;;;;;19.22;89.09;99099.56;4186241;28;20607;-64
2023/08/29 04:05:51;;;;;;;3.90;2.37;;;;;;;19.32;88.64;99118.19;4185666;28;20313;-63
2023/08/29 04:08:18;;;;;;;5.07;2.63;;;;;;;19.57;87.44;99137.19;4199529;28;20237;-64
2023/08/29 04:10:45;;;;;;;5.80;2.20;;;;;;;19.68;86.87;99141.00;4188921;28;20238;-64
2023/08/29 04:13:12;;;;;;;4.27;2.60;;;;;;;19.50;88.01;99152.06;4180628;28;21430;-65
2023/08/29 04:15:38;;;;;;;4.30;2.50;;;;;;;19.39;87.77;99132.63;4193260;28;20441;-64
2023/08/29 04:18:06;;;;;;;4.03;2.47;;;;;;;19.34;87.93;99129.75;4201862;28;20232;-63
2023/08/29 04:20:34;;;;;;;7.30;2.80;;;;;;;19.49;87.51;99129.28;4186998;28;20884;-65
2023/08/29 04:23:03;;;;;;;7.13;3.43;;;;;;;19.47;87.71;99126.81;4199419;28;23224;-64
2023/08/29 04:25:30;;;;;;;6.03;2.63;;;;;;;19.17;88.79;99124.13;4193782;28;21245;-64
2023/08/29 04:27:57;;;;;;;5.73;2.70;;;;;;;19.11;88.46;99125.09;4204286;28;21773;-63
2023/08/29 04:30:24;;;;;;;5.80;3.13;;;;;;;19.22;88.08;99118.75;4206047;28;20229;-67
2023/08/29 04:32:52;;;;;;;7.30;3.03;;;;;;;19.16;88.16;99125.19;4205509;28;22108;-64
2023/08/29 04:35:19;;;;;;;4.73;3.00;;;;;;;19.18;88.40;99130.47;4200336;28;20232;-65
2023/08/29 04:37:47;;;;;;;4.77;2.80;;;;;;;19.23;88.19;99122.34;4230734;28;22487;-65
2023/08/29 04:40:15;;;;;;;4.90;3.17;;;;;;;19.07;88.74;99119.22;4217240;28;21235;-65
2023/08/29 04:42:44;;;;;;;5.27;3.07;;;;;;;19.05;89.27;99126.03;4201391;28;21156;-65
2023/08/29 04:45:11;;;;;;;10.00;3.20;;;;;;;18.96;89.98;99131.00;4224377;28;22622;-65
2023/08/29 04:47:38;;;;;;;6.63;3.13;;;;;;;19.25;89.06;99132.03;4221439;28;20248;-66
2023/08/29 04:50:06;;;;;;;7.40;3.70;;;;;;;19.33;88.31;99139.09;4231657;28;20887;-64
2023/08/29 04:52:32;;;;;;;6.10;3.23;;;;;;;19.19;89.04;99143.94;4202509;28;21231;-65
2023/08/29 04:54:59;;;;;;;4.63;3.17;;;;;;;19.21;89.13;99128.09;4216603;28;20602;-64
2023/08/29 04:57:26;;;;;;;5.73;3.23;;;;;;;19.27;89.45;99129.88;4209238;28;20280;-66
2023/08/29 04:59:53;;;;;;;6.80;3.23;;;;;;;19.08;89.85;99134.63;4208950;28;20232;-64
2023/08/29 05:02:21;;;;;;;6.60;3.80;;;;;;;18.83;90.42;99137.50;4196915;28;20445;-64
2023/08/29 05:04:48;;;;;;;7.13;3.63;;;;;;;18.90;90.40;99138.25;4222421;28;20690;-64
2023/08/29 05:07:14;;;;;;;8.40;3.80;;;;;;;18.75;89.97;99124.13;4216023;28;20239;-65
2023/08/29 05:09:41;;;;;;;7.00;3.87;;;;;;;18.72;89.68;99124.59;4198774;28;20225;-63
2023/08/29 05:12:10;;;;;;;8.20;3.90;;;;;;;18.72;89.33;99128.19;4218757;28;20602;-65
2023/08/29 05:14:38;;;;;;;9.23;4.67;;;;;;;18.66;89.53;99121.72;4224290;28;20260;-66
2023/08/29 05:17:06;;;;;;;8.70;4.00;;;;;;;18.65;89.42;99117.31;4205850;28;22445;-69
2023/08/29 05:19:32;;;;;;;9.40;4.50;;;;;;;18.65;89.11;99122.78;4201486;28;20235;-65
2023/08/29 05:21:59;;;;;;;8.00;4.07;;;;;;;18.60;90.02;99133.63;4216849;28;21348;-64
2023/08/29 05:24:26;;;;;;;8.37;4.27;;;;;;;18.52;90.11;99114.75;4188760;28;20231;-66
2023/08/29 05:26:53;;;;;;;8.47;4.07;;;;;;;18.57;90.00;99103.94;4218240;28;21151;-64
2023/08/29 05:29:20;;;;;;;11.27;4.57;;;;;;;18.44;89.97;99087.69;4205888;28;20398;-66
2023/08/29 05:31:47;;;;;;;9.80;4.50;;;;;;;18.43;90.39;99092.31;4216764;28;20753;-64
2023/08/29 05:34:14;;;;;;;9.73;4.30;;;;;;;18.42;90.26;99092.56;4194984;28;20235;-64
2023/08/29 05:36:40;;;;;;;9.30;4.37;;;;;;;18.59;89.90;99090.84;4204605;28;20240;-67
2023/08/29 05:39:07;;;;;;;8.00;4.68;;;;;;;18.65;89.71;99089.06;4199040;28;20421;-67
2023/08/29 05:41:34;;;;;;;7.17;4.60;;;;;;;18.71;89.94;99082.66;4192848;28;20947;-66
2023/08/29 05:44:01;;;;;;;7.03;4.50;;;;;;;18.74;89.15;99084.09;4190846;28;20256;-65
2023/08/29 05:46:27;;;;;;;9.80;4.53;;;;;;;18.71;89.57;99101.84;4201010;28;20257;-66
2023/08/29 05:48:54;;;;;;;11.53;4.53;;;;;;;18.77;89.01;99083.63;4193313;28;20242;-64
2023/08/29 05:51:21;;;;;;;5.73;3.83;;;;;;;18.74;89.00;99086.81;4186399;28;20234;-64
2023/08/29 05:53:47;;;;;;;5.43;3.70;;;;;;;18.72;89.44;99086.22;4202095;28;20241;-64
2023/08/29 05:56:14;;;;;;;7.23;3.87;;;;;;;18.69;89.78;99080.13;4188065;28;20233;-68
2023/08/29 05:58:41;;;;;;;6.57;4.20;;;;;;;18.71;90.33;99071.69;4202930;28;21435;-65
2023/08/29 06:01:09;;;;;;;8.53;3.90;;;;;;;18.71;90.24;99076.31;4199862;28;20241;-67
2023/08/29 06:03:36;;;;;;;9.33;3.93;;;;;;;18.73;89.94;99061.28;4195990;28;26270;-66
2023/08/29 06:06:03;;;;;;;10.17;4.20;;;;;;;18.72;90.44;99072.50;4189247;28;21795;-67
2023/08/29 06:08:33;;;;;;;8.73;3.87;;;;;;;18.69;90.62;99068.34;4184062;28;23040;-68
2023/08/29 06:11:00;;;;;;;7.47;4.20;;;;;;;18.75;90.55;99056.44;4196187;28;23607;-68
2023/08/29 06:13:27;;;;;;;5.70;3.67;;;;;;;18.91;90.40;99068.63;4192719;28;20237;-65
2023/08/29 06:15:54;;;;;;;6.93;3.77;;;;;;;19.04;89.89;99050.31;4174879;28;20619;-65
2023/08/29 06:18:21;;;;;;;7.93;3.70;;;;;;;19.03;89.49;99052.22;4191571;28;20229;-65
2023/08/29 06:20:47;;;;;;;6.37;3.80;;;;;;;19.08;89.31;99040.53;4191492;28;22671;-67
2023/08/29 06:23:14;;;;;;;6.37;3.60;;;;;;;19.12;89.45;99036.25;4191566;28;22718;-64
2023/08/29 06:25:41;;;;;;;6.00;3.50;;;;;;;19.35;88.27;99023.59;4191695;28;23365;-64
2023/08/29 06:28:08;;;;;;;6.23;3.73;;;;;;;19.62;86.88;99022.00;4183308;28;21022;-66
2023/08/29 06:30:35;;;;;;;5.30;3.27;;;;;;;19.88;85.75;99018.97;4188716;28;23149;-65
2023/08/29 06:33:06;;;;;;;9.03;3.60;;;;;;;20.11;84.43;99026.31;4192761;28;20517;-66
2023/08/29 06:35:39;;;;;;;3.87;3.07;;;;;;;20.15;83.63;99023.91;4192597;28;20241;-65
2023/08/29 06:38:06;;;;;;;10.20;3.10;;;;;;;20.23;83.55;99027.09;4182050;28;20624;-65
2023/08/29 06:40:35;;;;;;;7.47;3.20;;;;;;;20.49;82.52;99027.56;4185449;28;22240;-67
2023/08/29 06:43:02;;;;;;;6.77;2.80;;;;;;;20.60;81.69;99014.84;4203625;28;21921;-66
2023/08/29 06:45:28;;;;;;;9.63;2.97;;;;;;;20.84;80.69;99015.53;4196928;28;21198;-64
2023/08/29 06:47:55;;;;;;;9.23;3.20;;;;;;;21.05;79.65;99015.84;4191815;28;20235;-66
2023/08/29 06:50:22;;;;;;;3.43;2.70;;;;;;;21.19;78.41;99019.09;4189104;28;20252;-66
2023/08/29 06:52:48;;;;;;;7.67;2.10;;;;;;;20.98;79.64;99020.69;4193502;28;20614;-64
2023/08/29 06:55:16;;;;;;;10.57;3.10;;;;;;;21.29;78.40;99024.75;4194126;28;20230;-66
2023/08/29 06:57:42;;;;;;;8.33;2.90;;;;;;;21.14;77.98;99014.34;4188335;28;21610;-63
2023/08/29 07:00:10;;;;;;;4.57;2.43;;;;;;;21.14;78.07;99022.59;4184731;28;20242;-62
2023/08/29 07:02:37;;;;;;;5.67;2.60;;;;;;;21.33;77.80;99039.66;4191500;28;20898;-65
2023/08/29 07:05:04;;;;;;;9.00;2.57;;;;;;;21.29;77.43;99040.41;4196757;28;20303;-65
2023/08/29 07:07:31;;;;;;;5.53;2.57;;;;;;;21.27;77.70;99026.06;4196954;28;20419;-65
2023/08/29 07:09:58;;;;;;;4.93;2.20;;;;;;;21.24;77.64;99021.91;4190918;28;20303;-67
2023/08/29 07:12:24;;;;;;;8.60;2.50;;;;;;;21.48;76.75;99017.03;4200958;28;20657;-66
2023/08/29 07:14:51;;;;;;;4.87;2.63;;;;;;;21.60;75.93;99008.66;4199561;28;25407;-66
2023/08/29 07:17:18;;;;;;;8.07;2.70;;;;;;;21.60;76.53;99011.41;4195259;28;20716;-68
2023/08/29 07:19:45;;;;;;;6.57;2.30;;;;;;;21.93;74.48;99000.56;4196978;28;20567;-63
2023/08/29 07:22:12;;;;;;;5.73;2.47;;;;;;;22.12;74.39;98999.09;4193726;28;20236;-67
2023/08/29 07:24:41;;;;;;;6.10;2.90;;;;;;;22.09;74.53;99001.53;4201974;28;20232;-65
2023/08/29 07:27:08;;;;;;;5.73;2.30;;;;;;;22.15;73.67;98993.09;4198825;28;20236;-67
2023/08/29 07:29:34;;;;;;;8.43;2.67;;;;;;;22.47;71.95;98995.06;4221314;28;20688;-67
2023/08/29 07:32:01;;;;;;;5.90;2.60;;;;;;;22.62;71.39;99016.44;4245732;28;20229;-67
2023/08/29 07:34:28;;;;;;;5.70;2.67;;;;;;;22.64;71.23;99021.69;4217362;28;20394;-66
2023/08/29 07:36:57;;;;;;;5.97;2.57;;;;;;;22.64;71.25;99016.19;4211237;28;20724;-66
2023/08/29 07:39:24;;;;;;;8.03;2.90;;;;;;;22.61;71.41;99022.22;4205476;28;22838;-63
2023/08/29 07:41:53;;;;;;;5.20;2.30;;;;;;;22.82;71.10;99042.53;4189361;28;20241;-66
2023/08/29 07:44:20;;;;;;;8.87;3.00;;;;;;;22.60;72.18;99051.72;4199028;28;22136;-64
2023/08/29 07:46:46;;;;;;;12.93;3.20;;;;;;;22.35;72.42;99052.28;4211536;28;20298;-65
2023/08/29 07:49:29;;;;;;;10.13;3.17;;;;;;;22.35;72.67;99046.75;4201737;28;20303;-66
2023/08/29 07:51:55;;;;;;;6.93;3.40;;;;;;;22.23;73.15;99046.09;4206933;28;20305;-65
2023/08/29 07:54:22;;;;;;;7.53;3.60;;;;;;;22.51;73.13;99047.75;4198313;28;20883;-66
2023/08/29 07:56:49;;;;;;;13.83;4.10;;;;;;;22.75;72.38;99051.06;4195250;28;20224;-73
2023/08/29 07:59:15;;;;;;;11.27;3.87;;;;;;;22.85;72.21;99057.75;4220280;28;20269;-74
2023/08/29 08:01:42;;;;;;;15.80;3.60;;;;;;;22.89;71.57;99067.97;4196409;28;20233;-60
2023/08/29 08:04:09;;;;;;;8.93;3.30;;;;;;;23.10;71.57;99066.22;4199074;28;21754;-68
2023/08/29 08:06:35;;;;;;;9.43;3.77;;;;;;;23.22;70.71;99068.03;4196168;28;20233;-65
2023/08/29 08:09:04;;;;;;;18.43;4.33;;;;;;;22.77;71.72;99062.63;4191508;28;20233;-65
2023/08/29 08:11:31;;;;;;;14.43;4.40;;;;;;;22.64;72.92;99041.00;4204278;28;20240;-67
2023/08/29 08:13:57;;;;;;;9.43;4.80;;;;;;;22.82;71.93;99036.19;4189728;28;20244;-66
2023/08/29 08:16:24;;;;;;;13.20;4.43;;;;;;;22.90;72.37;99042.06;4194462;28;20243;-65
2023/08/29 08:18:52;;;;;;;14.97;4.73;;;;;;;23.44;70.94;99042.19;4196803;28;20285;-68
2023/08/29 08:21:20;;;;;;;13.53;4.77;;;;;;;23.60;68.77;99040.34;4217859;28;20269;-67
2023/08/29 08:23:48;;;;;;;13.17;4.10;;;;;;;24.03;67.39;99025.38;4227825;28;20332;-67
2023/08/29 08:26:15;;;;;;;15.47;3.80;;;;;;;24.11;66.87;99043.34;4189451;28;20356;-65
2023/08/29 08:28:43;;;;;;;14.00;4.83;;;;;;;24.32;66.77;99060.03;4189742;28;20536;-64
2023/08/29 08:31:10;;;;;;;18.03;6.70;;;;;;;24.31;66.72;99055.59;4196778;28;20467;-63
2023/08/29 08:33:36;;;;;;;12.20;5.43;;;;;;;24.21;66.79;99057.22;4215730;28;20241;-66
2023/08/29 08:36:03;;;;;;;11.70;4.87;;;;;;;24.49;66.45;99052.31;4211490;28;20243;-63
2023/08/29 08:38:30;;;;;;;18.67;7.27;;;;;;;24.40;66.42;99061.41;4212909;28;25599;-67
2023/08/29 08:40:58;;;;;;;18.13;7.30;;;;;;;24.30;67.38;99056.69;4209738;28;21797;-68
2023/08/29 08:43:25;;;;;;;19.60;7.37;;;;;;;24.52;65.51;99071.13;4202527;28;21217;-67
2023/08/29 08:45:53;;;;;;;16.03;6.57;;;;;;;24.28;66.18;99062.50;4192216;28;21291;-68
2023/08/29 08:48:20;;;;;;;15.50;6.77;;;;;;;24.27;66.49;99071.06;4198077;28;20873;-69
2023/08/29 08:50:49;;;;;;;24.13;8.43;;;;;;;24.16;66.96;99072.97;4195328;28;20244;-71
2023/08/29 08:53:21;;;;;;;26.13;8.43;;;;;;;24.14;67.08;99080.69;4185692;28;22455;-70
2023/08/29 08:55:49;;;;;;;19.53;7.23;;;;;;;24.05;68.49;99094.22;4205940;28;20240;-70
2023/08/29 08:58:17;;;;;;;19.77;6.83;;;;;;;24.05;67.73;99091.44;4194977;28;25982;-72
2023/08/29 09:00:45;;;;;;;17.80;6.70;;;;;;;24.12;67.47;99092.03;4206246;28;21376;-69
2023/08/29 09:03:13;;;;;;;18.23;6.77;;;;;;;24.02;67.96;99090.06;4186549;28;20415;-70
2023/08/29 09:05:41;;;;;;;18.10;7.37;;;;;;;23.43;70.49;99096.59;4205104;28;20233;-71
2023/08/29 09:08:08;;;;;;;16.60;6.67;;;;;;;23.53;71.23;99101.34;4200236;28;20339;-69
2023/08/29 09:10:39;;;;;;;17.10;6.07;;;;;;;23.86;69.21;99096.56;4209098;28;20241;-68
2023/08/29 09:13:06;;;;;;;16.33;7.07;;;;;;;23.93;68.98;99097.19;4201245;28;20267;-69
2023/08/29 09:15:34;;;;;;;16.13;7.43;;;;;;;24.25;68.00;99098.16;4213459;28;20299;-68
2023/08/29 09:18:01;;;;;;;20.37;7.47;;;;;;;24.27;68.58;99096.81;4192140;28;25835;-70
2023/08/29 09:20:29;;;;;;;19.87;7.60;;;;;;;24.56;66.85;99087.16;4203881;28;20232;-68
2023/08/29 09:22:56;;;;;;;17.90;7.43;;;;;;;24.89;65.99;99085.88;4204865;28;20238;-68
2023/08/29 09:25:25;;;;;;;17.53;7.73;;;;;;;24.65;66.60;99082.78;4199712;28;20615;-68
2023/08/29 09:27:53;;;;;;;26.03;8.43;;;;;;;24.73;67.19;99075.91;4179287;28;20241;-70
2023/08/29 09:30:20;;;;;;;21.10;7.70;;;;;;;25.30;65.65;99087.84;4197288;28;20344;-70
2023/08/29 09:32:51;;;;;;;20.50;7.90;;;;;;;25.85;63.23;99088.03;4220396;28;23094;-68
2023/08/29 09:35:20;;;;;;;19.50;8.07;;;;;;;25.77;62.64;99086.66;4206982;28;20252;-69
2023/08/29 09:37:51;;;;;;;23.80;8.83;;;;;;;25.56;63.34;99082.25;4202047;28;20236;-68
2023/08/29 09:40:18;;;;;;;20.60;9.87;;;;;;;25.53;63.63;99082.84;4221644;28;20533;-67
2023/08/29 09:43:05;;;;;;;18.53;8.10;;;;;;;25.81;62.53;99075.00;4200969;28;22738;-68
2023/08/29 09:45:32;;;;;;;20.87;8.37;;;;;;;25.57;63.32;99076.44;4199952;28;21249;-69
2023/08/29 09:48:06;;;;;;;20.03;8.63;;;;;;;25.88;62.60;99079.13;4200663;28;20249;-71
2023/08/29 09:50:35;;;;;;;23.70;9.47;;;;;;;24.96;65.38;99071.75;4197467;28;20316;-70
2023/08/29 09:53:02;;;;;;;19.60;8.10;;;;;;;25.72;63.07;99080.31;4186297;28;20237;-71
2023/08/29 09:55:37;;;;;;;19.97;8.47;;;;;;;25.65;63.71;99086.13;4209145;28;20300;-67
2023/08/29 09:58:04;;;;;;;23.07;7.93;;;;;;;25.99;63.16;99076.31;4185231;28;20239;-69
2023/08/29 10:00:34;;;;;;;18.30;8.03;;;;;;;26.32;62.88;99069.25;4210978;28;20233;-71
2023/08/29 10:03:05;;;;;;;19.40;9.30;;;;;;;26.44;61.07;99071.69;4185870;28;20268;-68
2023/08/29 10:05:36;;;;;;;19.77;9.13;;;;;;;26.31;61.33;99091.75;4187566;28;20445;-68
2023/08/29 10:08:24;;;;;;;22.47;9.47;;;;;;;26.37;61.10;99093.38;4207720;28;25534;-68
2023/08/29 10:10:56;;;;;;;23.57;9.63;;;;;;;25.84;62.49;99089.13;4232469;28;20237;-72
2023/08/29 10:13:24;;;;;;;22.37;9.70;;;;;;;25.63;64.11;99088.34;4222252;28;20228;-69
2023/08/29 10:15:51;;;;;;;21.13;9.53;;;;;;;25.57;65.19;99101.38;4186232;28;20249;-69
2023/08/29 10:18:19;;;;;;;21.67;9.67;;;;;;;26.04;62.79;99096.56;4218595;28;20234;-69
2023/08/29 10:20:47;;;;;;;21.53;10.10;;;;;;;26.09;62.79;99095.75;4213007;28;21099;-67
2023/08/29 10:23:13;;;;;;;17.73;9.33;;;;;;;26.12;62.79;99086.84;4188744;28;20241;-70
2023/08/29 10:25:41;;;;;;;27.13;9.63;;;;;;;26.26;62.65;99084.28;4200970;28;20391;-68
2023/08/29 10:28:11;;;;;;;25.27;9.77;;;;;;;26.33;64.15;99076.47;4185329;28;20238;-68
2023/08/29 10:30:42;;;;;;;22.27;10.83;;;;;;;25.67;64.84;99085.84;4198455;28;20232;-70
2023/08/29 10:33:09;;;;;;;27.43;10.47;;;;;;;25.64;65.27;99067.84;4197238;28;21126;-70
2023/08/29 10:35:36;;;;;;;19.15;9.48;;;;;;;25.47;66.26;99073.72;4195608;28;25464;-69
2023/08/29 10:38:09;;;;;;;20.47;9.27;;;;;;;25.89;65.00;99077.19;4200813;28;23389;-68
2023/08/29 10:40:40;;;;;;;20.43;9.30;;;;;;;26.33;63.46;99067.31;4197252;28;20242;-69
2023/08/29 10:43:18;;;;;;;24.47;11.03;;;;;;;26.38;62.50;99068.13;4190479;28;22339;-67
2023/08/29 10:45:51;;;;;;;25.85;10.00;;;;;;;26.32;62.78;99057.34;4202508;28;22634;-72
2023/08/29 10:48:19;;;;;;;22.33;9.70;;;;;;;26.49;62.49;99055.00;4203322;28;20589;-76
2023/08/29 10:50:48;;;;;;;22.10;9.10;;;;;;;27.00;60.91;99061.34;4192309;28;20224;-73
2023/08/29 10:53:19;;;;;;;31.63;10.70;;;;;;;26.87;61.18;99068.41;4201171;28;20528;-74
2023/08/29 10:56:03;;;;;;;19.30;9.17;;;;;;;27.04;61.23;99070.75;4213770;28;20665;-75
2023/08/29 10:58:34;;;;;;;29.50;10.83;;;;;;;27.32;60.19;99076.59;4197580;28;22563;-76
2023/08/29 11:01:02;;;;;;;26.33;10.98;;;;;;;27.18;60.65;99070.91;4187582;28;20777;-75
2023/08/29 11:03:48;;;;;;;29.90;10.90;;;;;;;27.34;60.31;99071.59;4184916;28;20263;-74
2023/08/29 11:06:17;;;;;;;19.50;9.43;;;;;;;27.62;59.76;99077.44;4197497;28;22301;-77
2023/08/29 11:08:44;;;;;;;26.40;10.38;;;;;;;27.34;59.97;99086.31;4196666;28;22884;-74
2023/08/29 11:11:17;;;;;;;27.17;11.23;;;;;;;27.24;60.20;99089.19;4212635;28;20361;-73
2023/08/29 11:14:00;;;;;;;19.35;10.05;;;;;;;26.91;60.58;99085.31;4182500;28;20306;-71
2023/08/29 11:16:28;;;;;;;23.50;10.63;;;;;;;27.12;60.47;99088.72;4209847;28;20352;-75
2023/08/29 11:19:11;;;;;;;22.23;10.27;;;;;;;26.90;62.13;99078.91;4184260;28;20297;-72
2023/08/29 11:21:47;;;;;;;22.08;10.00;;;;;;;27.15;60.69;99077.03;4195442;28;20295;-72
2023/08/29 11:24:15;;;;;;;22.98;10.43;;;;;;;27.47;60.09;99064.56;4208623;28;21612;-74
2023/08/29 11:26:44;;;;;;;26.77;10.50;;;;;;;27.31;59.48;99061.06;4199685;28;20263;-72
2023/08/29 11:29:10;;;;;;;21.75;9.80;;;;;;;27.19;60.45;99059.50;4209096;28;21232;-72
2023/08/29 11:31:42;;;;;;;17.73;9.57;;;;;;;27.16;61.06;99053.72;4203344;28;22211;-71
2023/08/29 11:34:20;;;;;;;25.43;11.00;;;;;;;26.96;62.77;99060.25;4211129;28;20393;-72